Flight Track Log - Related Links

Times and Time Zones

All times are in EDT time to prevent confusion due to time zone crossing. See the SKW4473 flight status page for this flight to view local times or setup timezone preferences in your user account.

Time Position Orientation Groundspeed Altitude Reporting Facility
EDT Latitude Longitude Course Direction KTS MPH feet Rate Location/Type
Mon 01:27:09 PM 40.8061 -111.9653 13° North 185 213 5,000  Level Salt Center
Mon 01:28:22 PM 40.8742 -111.9733 355° North 214 246 7,400 1,924 Climbing Salt Center
Mon 01:29:20 PM 40.9283 -111.9794 355° North 239 275 9,200 2,168 Climbing Salt Center
Mon 01:30:00 PM 41.1909 -111.8447 43° Northeast  Level FlightAware
Mon 01:30:21 PM 41.0019 -111.9642 North 279 321 11,700  Level Salt Center
Mon 01:31:00 PM 41.2889 -111.7722 21° North  Level FlightAware
Mon 01:31:23 PM 41.0747 -111.9181 26° Northeast 285 328 13,900  Level Salt Center
Mon 01:32:00 PM 41.3863 -111.6941 13° North  Level FlightAware
Mon 01:32:25 PM 41.1686 -111.8608 25° Northeast 303 349 16,000  Level Salt Center
Mon 01:33:26 PM 41.2469 -111.8103 26° Northeast 310 357 18,000 1,707 Climbing Salt Center
Mon 01:34:28 PM 41.3253 -111.7536 29° Northeast 320 368 19,500 1,500 Climbing Salt Center
Mon 01:35:30 PM 41.4069 -111.7017 26° Northeast 324 373 21,100 1,355 Climbing Salt Center
Mon 01:36:32 PM 41.4933 -111.6675 17° North 324 373 22,300 1,317 Climbing Salt Center
Mon 01:37:33 PM 41.5825 -111.6333 16° North 334 384 23,800 1,268 Climbing Salt Center
Mon 01:38:35 PM 41.6722 -111.5975 17° North 337 388 24,900 1,065 Climbing Salt Center
Mon 01:39:37 PM 41.7672 -111.5589 17° North 353 406 26,000 1,210 Climbing Salt Center
Mon 01:40:39 PM 41.8836 -111.5286 11° North 356 410 27,400 1,268 Climbing Salt Center
Mon 01:41:40 PM 41.9803 -111.5053 10° North 354 407 28,600 878 Climbing Salt Center
Mon 01:42:42 PM 42.0794 -111.4839 North 360 414 29,200 532 Climbing Salt Center
Mon 01:43:44 PM 42.1842 -111.4594 10° North 379 436 29,700 823 Climbing Salt Center
Mon 01:44:46 PM 42.2925 -111.4358 North 394 453 30,900 634 Climbing Salt Center
Mon 01:45:47 PM 42.3967 -111.4519 353° North 378 435 31,000 49 Climbing Salt Center
Mon 01:46:49 PM 42.5047 -111.4742 351° North 392 451 31,000 387 Level Salt Center
Mon 01:47:51 PM 42.6350 -111.4981 352° North 395 455 31,800 484 Climbing Salt Center
Mon 01:48:53 PM 42.7456 -111.5194 352° North 394 453 32,000 97 Climbing Salt Center
Mon 01:49:55 PM 42.8531 -111.5411 352° North 405 466 32,000  Level Salt Center
Mon 01:50:56 PM 42.9811 -111.5650 352° North 412 474 32,000  Level Salt Center
Mon 01:51:58 PM 43.0886 -111.5883 351° North 409 471 32,000  Level Salt Center
Mon 01:53:00 PM 43.1967 -111.6083 352° North 410 472 32,000  Level Salt Center
Mon 01:54:02 PM 43.3231 -111.6331 352° North 409 471 32,000  Level Salt Center
Mon 01:55:04 PM 43.4306 -111.6556 351° North 407 468 32,000  Level Salt Center
Mon 01:56:06 PM 43.5542 -111.6800 352° North 402 463 32,000  Level Salt Center
Mon 01:57:08 PM 43.6617 -111.7014 352° North 405 466 32,000  Level Salt Center
Mon 01:58:09 PM 43.7847 -111.7275 351° North 402 463 32,000  Level Salt Center
Mon 01:59:11 PM 43.8897 -111.7475 352° North 397 457 32,000  Level Salt Center
Mon 02:00:13 PM 44.0122 -111.7731 351° North 397 457 32,000  Level Salt Center
Mon 02:01:15 PM 44.1169 -111.7953 351° North 398 458 32,000  Level Salt Center
Mon 02:02:17 PM 44.2219 -111.8161 352° North 397 457 32,000  Level Salt Center
Mon 02:03:19 PM 44.3439 -111.8433 351° North 396 456 32,000  Level Salt Center
Mon 02:04:21 PM 44.4492 -111.8647 352° North 396 456 32,000  Level Salt Center
Mon 02:05:22 PM 44.5717 -111.8886 352° North 396 456 32,000  Level Salt Center
Mon 02:06:24 PM 44.6747 -111.9117 351° North 391 450 32,000  Level Salt Center
Mon 02:07:26 PM 44.7789 -111.9264 354° North 391 450 32,000  Level Salt Center
Mon 02:08:28 PM 44.9031 -111.9344 357° North 397 457 32,000  Level Salt Center
Mon 02:09:30 PM 45.0097 -111.9439 356° North 401 461 32,000  Level Salt Center
Mon 02:10:32 PM 45.1303 -111.9533 357° North 399 459 32,000 -1,016 Level Salt Center
Mon 02:11:34 PM 45.2447 -111.9628 357° North 409 471 29,900 -1,984 Descending Salt Center
Mon 02:12:36 PM 45.3644 -111.9728 357° North 426 490 27,900 -1,935 Descending Salt Center
Mon 02:13:38 PM 45.4847 -111.9828 357° North 429 494 25,900 -1,984 Descending Salt Center
Mon 02:14:40 PM 45.6033 -111.9922 357° North 425 489 23,800 -1,984 Descending Salt Center
Mon 02:15:42 PM 45.7186 -112.0033 356° North 413 475 21,800 -2,146 Descending Salt Center
Mon 02:16:43 PM 45.8406 -112.0136 357° North 365 420 19,400 -2,439 Descending Salt Center
Mon 02:17:45 PM 45.9383 -112.0217 357° North 352 405 16,800 -2,419 Descending Salt Center
Mon 02:18:47 PM 46.0431 -112.0294 357° North 371 427 14,400 -1,839 Descending Salt Center
Mon 02:19:49 PM 46.1378 -112.0375 357° North 348 400 13,000 -629 Descending Salt Center
Mon 02:20:51 PM 46.2231 -112.0303 North 325 374 13,100 48 Climbing Salt Center
Mon 02:21:53 PM 46.2744 -111.9289 54° Northeast 324 373 13,100 -341 Level Salt Center
Mon 02:22:54 PM 46.2917 -111.7931 80° East 343 395 12,400 -689 Descending Salt Center
Mon 02:24:00 PM 46.3938 -111.8543 338° Northwest  Level Estimated
Mon 02:31:00 PM 46.6068 -111.9827 337° Northwest  Level Estimated

Login

Don't have an account? Register now (free) for customized features, flight alerts, and more!